Gulf - Magdalen: Past 24 Hour Conditions

 

Îles de la Madeleine Airport

01:00 AM ADT 28 July 2014
This table is a summary of hourly weather conditions for the past 24 hours.
Date / Time
(ADT)
Wind(knots) Conditions Visibility(km) Pressure(kPa) Air tempC) Relative humidity(%) Dew pointC) Humidex
28 July 2014
1:00 SSE 12 gust 19 N/A N/A 101.2 19 89 17 *
0:00 S 12 gust 22 N/A N/A 101.2 19 87 17 *
27 July 2014
23:00 S 18 gust 25 Mainly Clear 24 101.3 21 79 17 26
22:00 S 15 gust 23 Mainly Clear 24 101.3 20 80 17 25
21:00 S 19 gust 30 Partly Cloudy 24 101.3 21 80 17 26
20:00 S 16 gust 26 Partly Cloudy 32 101.2 22 78 18 27
19:00 S 16 gust 27 Partly Cloudy 32 101.2 22 74 18 28
18:00 S 16 gust 23 Partly Cloudy 32 101.2 22 75 18 28
17:00 S 18 gust 26 Partly Cloudy 24 101.2 23 67 17 29
16:00 S 16 gust 24 Partly Cloudy 24 101.2 23 73 18 28
15:00 S 16 gust 28 Mainly Sunny 24 101.2 23 70 17 28
14:00 S 20 gust 27 Mainly Sunny 24 101.2 22 69 16 27
13:00 SSW 12 gust 22 Mainly Sunny 24 101.3 23 67 17 28
12:00 SSW 15 gust 24 Mainly Sunny 24 101.3 22 67 15 26
11:00 S 11 gust 20 Mainly Sunny 19 101.3 22 73 17 27
10:00 SSW 16 Mainly Sunny 19 101.3 21 73 16 26
9:00 SSW 11 gust 19 Mainly Sunny 19 101.3 20 77 16 25
8:00 SSW 13 gust 20 Partly Cloudy 19 101.2 21 72 16 25
7:00 SW 11 gust 17 Partly Cloudy 24 101.2 19 79 16 *
6:00 SW 11 gust 18 Partly Cloudy 24 101.2 19 82 16 *
5:00 SSW 10 N/A N/A 101.1 18 87 16 *
4:00 SW 12 gust 17 N/A N/A 101.1 19 84 16 *
3:00 SSW 11 gust 17 N/A N/A 101.1 19 81 16 *
2:00 N/A N/A N/A N/A N/A N/A N/A *
1:00 SSW 15 gust 20 N/A N/A 101.1 20 76 16 *
 
Map of Atlantic - Newfoundland marine weather areas Southwestern Grand Banks - 44138 Banquereau - 44139 Tail of the Bank - 44140 Nickerson Bank - 44251 Northeast Burgeo Bank - 44255 Blanc-Sablon Airport Cap Whittle Chevery Natashquan Airport Heath Point Miscou Island Grand Étang Ingonish Beach North Mountain St.Paul Island J.A. Douglas McCurdy Sydney Airport Charlottetown Airport East Point North Cape Argentia Bonavista Burgeo Cape Race Corner Brook Daniel's Harbour Englee Ferolle Point La Scie Port aux Basques Rocky Harbour Sagona Island St. Anthony Airport St. John's Int'l Airport St. Lawrence Stephenville Airport Twillingate Winterland Wreckhouse Cartwright Airport Mary's Harbour Grates Cove Pool's Island Marticot Island Long Pond Îles de la Madeleine Airport
Legend: buoyBuoy land stationLand Station